sensor_id;sensor_type;location;lat;lon;timestamp;pressure;altitude;pressure_sealevel;temperature;humidity
48848;BME280;36611;51.638;5.784;2023-08-17T00:01:53;101907.09;;;29.36;43.57
48848;BME280;36611;51.638;5.784;2023-08-17T00:04:19;101904.34;;;29.36;43.57
48848;BME280;36611;51.638;5.784;2023-08-17T00:06:46;101903.50;;;29.35;43.46
48848;BME280;36611;51.638;5.784;2023-08-17T00:09:13;101911.59;;;29.37;43.86
48848;BME280;36611;51.638;5.784;2023-08-17T00:11:40;101909.88;;;29.36;43.29
48848;BME280;36611;51.638;5.784;2023-08-17T00:14:06;101904.34;;;29.36;43.55
48848;BME280;36611;51.638;5.784;2023-08-17T00:16:33;101918.19;;;29.36;43.56
48848;BME280;36611;51.638;5.784;2023-08-17T00:18:59;101919.88;;;29.37;43.17
48848;BME280;36611;51.638;5.784;2023-08-17T00:21:26;101914.34;;;29.37;43.74
48848;BME280;36611;51.638;5.784;2023-08-17T00:23:52;101912.66;;;29.36;43.44
48848;BME280;36611;51.638;5.784;2023-08-17T00:26:19;101908.16;;;29.35;43.55
48848;BME280;36611;51.638;5.784;2023-08-17T00:28:46;101902.44;;;29.36;43.49
48848;BME280;36611;51.638;5.784;2023-08-17T00:31:13;101903.50;;;29.35;43.32
48848;BME280;36611;51.638;5.784;2023-08-17T00:33:39;101896.03;;;29.36;43.46
48848;BME280;36611;51.638;5.784;2023-08-17T00:36:07;101886.88;;;29.35;43.21
48848;BME280;36611;51.638;5.784;2023-08-17T00:38:33;101895.19;;;29.35;43.68
48848;BME280;36611;51.638;5.784;2023-08-17T00:41:00;101894.13;;;29.36;43.64
48848;BME280;36611;51.638;5.784;2023-08-17T00:43:26;101884.97;;;29.36;43.34
48848;BME280;36611;51.638;5.784;2023-08-17T00:45:55;101878.59;;;29.35;43.45
48848;BME280;36611;51.638;5.784;2023-08-17T00:48:22;101873.06;;;29.35;43.92
48848;BME280;36611;51.638;5.784;2023-08-17T00:50:50;101872.00;;;29.36;43.57
48848;BME280;36611;51.638;5.784;2023-08-17T00:53:19;101871.13;;;29.36;43.60
48848;BME280;36611;51.638;5.784;2023-08-17T00:55:48;101867.50;;;29.35;43.78
48848;BME280;36611;51.638;5.784;2023-08-17T00:58:15;101863.91;;;29.35;43.38
48848;BME280;36611;51.638;5.784;2023-08-17T01:00:42;101868.56;;;29.34;43.41
48848;BME280;36611;51.638;5.784;2023-08-17T01:03:09;101876.88;;;29.34;43.91
48848;BME280;36611;51.638;5.784;2023-08-17T01:05:37;101869.44;;;29.35;43.35
48848;BME280;36611;51.638;5.784;2023-08-17T01:08:04;101868.38;;;29.36;43.64
48848;BME280;36611;51.638;5.784;2023-08-17T01:10:41;101868.38;;;29.36;43.39
48848;BME280;36611;51.638;5.784;2023-08-17T01:13:15;101872.19;;;29.35;43.45
48848;BME280;36611;51.638;5.784;2023-08-17T01:15:50;101875.81;;;29.35;43.66
48848;BME280;36611;51.638;5.784;2023-08-17T01:18:29;101886.88;;;29.35;43.63
48848;BME280;36611;51.638;5.784;2023-08-17T01:21:00;101883.25;;;29.35;43.40
48848;BME280;36611;51.638;5.784;2023-08-17T01:23:28;101884.31;;;29.34;43.63
48848;BME280;36611;51.638;5.784;2023-08-17T01:25:54;101885.19;;;29.34;43.59
48848;BME280;36611;51.638;5.784;2023-08-17T01:28:24;101876.03;;;29.34;43.73
48848;BME280;36611;51.638;5.784;2023-08-17T01:30:58;101873.25;;;29.34;43.61
48848;BME280;36611;51.638;5.784;2023-08-17T01:34:09;101868.13;;;29.31;43.53
48848;BME280;36611;51.638;5.784;2023-08-17T01:36:52;101874.72;;;29.30;43.70
48848;BME280;36611;51.638;5.784;2023-08-17T01:39:23;101867.28;;;29.30;43.46
48848;BME280;36611;51.638;5.784;2023-08-17T01:41:55;101861.75;;;29.30;43.64
48848;BME280;36611;51.638;5.784;2023-08-17T01:44:23;101870.91;;;29.31;43.69
48848;BME280;36611;51.638;5.784;2023-08-17T01:46:51;101874.09;;;29.28;43.83
48848;BME280;36611;51.638;5.784;2023-08-17T01:49:18;101867.50;;;29.29;43.53
48848;BME280;36611;51.638;5.784;2023-08-17T01:51:44;101865.59;;;29.29;43.67
48848;BME280;36611;51.638;5.784;2023-08-17T01:54:11;101861.09;;;29.28;43.52
48848;BME280;36611;51.638;5.784;2023-08-17T01:56:37;101865.59;;;29.29;43.31
48848;BME280;36611;51.638;5.784;2023-08-17T01:59:05;101874.09;;;29.28;43.56
48848;BME280;36611;51.638;5.784;2023-08-17T02:01:32;101880.47;;;29.28;43.41
48848;BME280;36611;51.638;5.784;2023-08-17T02:03:58;101874.94;;;29.28;43.55
48848;BME280;36611;51.638;5.784;2023-08-17T02:06:28;101877.72;;;29.28;43.41
48848;BME280;36611;51.638;5.784;2023-08-17T02:08:55;101873.88;;;29.29;43.71
48848;BME280;36611;51.638;5.784;2023-08-17T02:11:22;101885.81;;;29.30;43.54
48848;BME280;36611;51.638;5.784;2023-08-17T02:13:50;101880.28;;;29.30;43.50
48848;BME280;36611;51.638;5.784;2023-08-17T02:16:16;101882.19;;;29.29;43.44
48848;BME280;36611;51.638;5.784;2023-08-17T02:18:43;101889.63;;;29.29;43.54
48848;BME280;36611;51.638;5.784;2023-08-17T02:21:09;101896.00;;;29.29;43.50
48848;BME280;36611;51.638;5.784;2023-08-17T02:23:38;101895.16;;;29.29;43.46
48848;BME280;36611;51.638;5.784;2023-08-17T02:26:05;101897.94;;;29.29;43.25
48848;BME280;36611;51.638;5.784;2023-08-17T02:28:31;101888.56;;;29.30;43.53
48848;BME280;36611;51.638;5.784;2023-08-17T02:30:58;101886.88;;;29.29;43.46
48848;BME280;36611;51.638;5.784;2023-08-17T02:33:27;101884.09;;;29.29;43.41
48848;BME280;36611;51.638;5.784;2023-08-17T02:35:53;101884.31;;;29.27;43.44
48848;BME280;36611;51.638;5.784;2023-08-17T02:38:20;101876.84;;;29.28;43.18
48848;BME280;36611;51.638;5.784;2023-08-17T02:40:48;101876.84;;;29.28;43.15
48848;BME280;36611;51.638;5.784;2023-08-17T02:43:15;101871.53;;;29.26;43.17
48848;BME280;36611;51.638;5.784;2023-08-17T02:45:43;101871.53;;;29.26;43.04
48848;BME280;36611;51.638;5.784;2023-08-17T02:48:09;101875.16;;;29.27;43.59
48848;BME280;36611;51.638;5.784;2023-08-17T02:50:37;101863.22;;;29.26;43.36
48848;BME280;36611;51.638;5.784;2023-08-17T02:53:04;101862.38;;;29.26;43.32
48848;BME280;36611;51.638;5.784;2023-08-17T02:55:30;101861.53;;;29.25;43.20
48848;BME280;36611;51.638;5.784;2023-08-17T02:57:57;101859.59;;;29.26;43.29
48848;BME280;36611;51.638;5.784;2023-08-17T03:00:24;101854.06;;;29.26;43.44
48848;BME280;36611;51.638;5.784;2023-08-17T03:02:50;101857.06;;;29.24;43.45
48848;BME280;36611;51.638;5.784;2023-08-17T03:05:17;101855.13;;;29.25;43.25
48848;BME280;36611;51.638;5.784;2023-08-17T03:07:44;101855.13;;;29.25;43.14
48848;BME280;36611;51.638;5.784;2023-08-17T03:10:10;101854.28;;;29.24;43.51
48848;BME280;36611;51.638;5.784;2023-08-17T03:12:38;101847.91;;;29.24;43.40
48848;BME280;36611;51.638;5.784;2023-08-17T03:15:06;101851.50;;;29.24;43.31
48848;BME280;36611;51.638;5.784;2023-08-17T03:17:34;101851.50;;;29.24;43.28
48848;BME280;36611;51.638;5.784;2023-08-17T03:20:01;101852.56;;;29.23;43.35
48848;BME280;36611;51.638;5.784;2023-08-17T03:22:28;101847.91;;;29.24;43.46
48848;BME280;36611;51.638;5.784;2023-08-17T03:24:55;101857.06;;;29.24;43.16
48848;BME280;36611;51.638;5.784;2023-08-17T03:27:21;101857.91;;;29.25;43.50
48848;BME280;36611;51.638;5.784;2023-08-17T03:29:49;101851.72;;;29.23;43.17
48848;BME280;36611;51.638;5.784;2023-08-17T03:32:15;101848.97;;;29.23;43.38
48848;BME280;36611;51.638;5.784;2023-08-17T03:34:42;101849.81;;;29.23;43.66
48848;BME280;36611;51.638;5.784;2023-08-17T03:37:09;101850.66;;;29.24;43.26
48848;BME280;36611;51.638;5.784;2023-08-17T03:39:36;101850.66;;;29.24;43.50
48848;BME280;36611;51.638;5.784;2023-08-17T03:42:03;101838.75;;;29.23;43.20
48848;BME280;36611;51.638;5.784;2023-08-17T03:44:29;101842.56;;;29.22;43.07
48848;BME280;36611;51.638;5.784;2023-08-17T03:46:56;101842.56;;;29.22;43.35
48848;BME280;36611;51.638;5.784;2023-08-17T03:49:22;101843.44;;;29.23;43.38
48848;BME280;36611;51.638;5.784;2023-08-17T03:51:49;101837.03;;;29.22;43.34
48848;BME280;36611;51.638;5.784;2023-08-17T03:54:17;101847.25;;;29.22;43.25
48848;BME280;36611;51.638;5.784;2023-08-17T03:56:43;101841.72;;;29.22;43.30
48848;BME280;36611;51.638;5.784;2023-08-17T03:59:10;101847.25;;;29.22;43.35
48848;BME280;36611;51.638;5.784;2023-08-17T04:01:36;101848.31;;;29.21;42.85
48848;BME280;36611;51.638;5.784;2023-08-17T04:04:03;101846.41;;;29.21;43.29
48848;BME280;36611;51.638;5.784;2023-08-17T04:06:30;101846.41;;;29.21;43.12
48848;BME280;36611;51.638;5.784;2023-08-17T04:08:57;101846.41;;;29.21;43.10
48848;BME280;36611;51.638;5.784;2023-08-17T04:11:23;101844.69;;;29.20;43.10
48848;BME280;36611;51.638;5.784;2023-08-17T04:13:50;101849.16;;;29.21;43.12
48848;BME280;36611;51.638;5.784;2023-08-17T04:16:19;101852.78;;;29.22;43.10
48848;BME280;36611;51.638;5.784;2023-08-17T04:18:46;101859.38;;;29.21;43.13
48848;BME280;36611;51.638;5.784;2023-08-17T04:21:12;101859.38;;;29.21;43.11
48848;BME280;36611;51.638;5.784;2023-08-17T04:23:39;101862.16;;;29.21;43.35
48848;BME280;36611;51.638;5.784;2023-08-17T04:26:05;101865.97;;;29.20;43.36
48848;BME280;36611;51.638;5.784;2023-08-17T04:28:32;101868.53;;;29.21;43.08
48848;BME280;36611;51.638;5.784;2023-08-17T04:30:59;101866.81;;;29.20;43.22
48848;BME280;36611;51.638;5.784;2023-08-17T04:33:29;101871.50;;;29.20;43.42
48848;BME280;36611;51.638;5.784;2023-08-17T04:35:56;101871.50;;;29.20;43.18
48848;BME280;36611;51.638;5.784;2023-08-17T04:38:23;101872.56;;;29.19;43.38
48848;BME280;36611;51.638;5.784;2023-08-17T04:40:49;101872.56;;;29.19;43.37
48848;BME280;36611;51.638;5.784;2023-08-17T04:43:17;101880.88;;;29.19;43.38
48848;BME280;36611;51.638;5.784;2023-08-17T04:45:44;101874.28;;;29.20;43.01
48848;BME280;36611;51.638;5.784;2023-08-17T04:48:14;101871.72;;;29.18;43.24
48848;BME280;36611;51.638;5.784;2023-08-17T04:50:42;101871.72;;;29.18;42.94
48848;BME280;36611;51.638;5.784;2023-08-17T04:53:08;101872.78;;;29.17;43.17
48848;BME280;36611;51.638;5.784;2023-08-17T04:55:35;101872.78;;;29.17;43.40
48848;BME280;36611;51.638;5.784;2023-08-17T04:58:02;101870.84;;;29.18;43.07
48848;BME280;36611;51.638;5.784;2023-08-17T05:00:28;101871.91;;;29.17;43.01
48848;BME280;36611;51.638;5.784;2023-08-17T05:02:56;101884.69;;;29.18;43.03
48848;BME280;36611;51.638;5.784;2023-08-17T05:05:26;101879.16;;;29.18;43.02
48848;BME280;36611;51.638;5.784;2023-08-17T05:07:54;101870.00;;;29.17;43.42
48848;BME280;36611;51.638;5.784;2023-08-17T05:10:21;101871.91;;;29.17;43.27
48848;BME280;36611;51.638;5.784;2023-08-17T05:12:49;101863.63;;;29.17;43.07
48848;BME280;36611;51.638;5.784;2023-08-17T05:15:15;101869.16;;;29.17;43.37
48848;BME280;36611;51.638;5.784;2023-08-17T05:17:43;101877.44;;;29.17;43.19
48848;BME280;36611;51.638;5.784;2023-08-17T05:20:11;101868.31;;;29.16;43.17
48848;BME280;36611;51.638;5.784;2023-08-17T05:22:39;101870.22;;;29.16;43.10
48848;BME280;36611;51.638;5.784;2023-08-17T05:25:06;101873.84;;;29.16;43.15
48848;BME280;36611;51.638;5.784;2023-08-17T05:27:34;101872.97;;;29.16;43.19
48848;BME280;36611;51.638;5.784;2023-08-17T05:30:01;101871.91;;;29.17;43.37
48848;BME280;36611;51.638;5.784;2023-08-17T05:32:28;101879.38;;;29.16;43.32
48848;BME280;36611;51.638;5.784;2023-08-17T05:34:54;101874.69;;;29.17;43.44
48848;BME280;36611;51.638;5.784;2023-08-17T05:37:21;101871.91;;;29.17;43.26
48848;BME280;36611;51.638;5.784;2023-08-17T05:39:48;101871.91;;;29.17;43.00
48848;BME280;36611;51.638;5.784;2023-08-17T05:42:14;101870.84;;;29.18;43.29
48848;BME280;36611;51.638;5.784;2023-08-17T05:44:41;101866.38;;;29.17;42.95
48848;BME280;36611;51.638;5.784;2023-08-17T05:47:07;101868.31;;;29.16;43.50
48848;BME280;36611;51.638;5.784;2023-08-17T05:49:34;101870.84;;;29.18;43.21
48848;BME280;36611;51.638;5.784;2023-08-17T05:52:01;101867.25;;;29.17;43.14
48848;BME280;36611;51.638;5.784;2023-08-17T05:54:27;101868.09;;;29.18;43.53
48848;BME280;36611;51.638;5.784;2023-08-17T05:56:54;101871.72;;;29.18;43.14
48848;BME280;36611;51.638;5.784;2023-08-17T05:59:20;101870.84;;;29.18;43.36
48848;BME280;36611;51.638;5.784;2023-08-17T06:01:47;101883.63;;;29.19;43.41
48848;BME280;36611;51.638;5.784;2023-08-17T06:04:13;101888.31;;;29.18;43.25
48848;BME280;36611;51.638;5.784;2023-08-17T06:06:40;101894.50;;;29.20;43.41
48848;BME280;36611;51.638;5.784;2023-08-17T06:09:07;101899.38;;;29.18;43.11
48848;BME280;36611;51.638;5.784;2023-08-17T06:11:34;101891.06;;;29.18;43.30
48848;BME280;36611;51.638;5.784;2023-08-17T06:14:01;101891.06;;;29.18;43.36
48848;BME280;36611;51.638;5.784;2023-08-17T06:16:27;101893.00;;;29.18;43.35
48848;BME280;36611;51.638;5.784;2023-08-17T06:18:54;101896.63;;;29.18;43.23
48848;BME280;36611;51.638;5.784;2023-08-17T06:21:21;101893.84;;;29.18;42.83
48848;BME280;36611;51.638;5.784;2023-08-17T06:23:47;101891.06;;;29.18;43.17
48848;BME280;36611;51.638;5.784;2023-08-17T06:26:14;101891.94;;;29.19;43.42
48848;BME280;36611;51.638;5.784;2023-08-17T06:28:40;101897.47;;;29.19;43.34
48848;BME280;36611;51.638;5.784;2023-08-17T06:31:07;101897.47;;;29.19;43.28
48848;BME280;36611;51.638;5.784;2023-08-17T06:33:34;101899.38;;;29.18;43.28
48848;BME280;36611;51.638;5.784;2023-08-17T06:36:00;101898.31;;;29.19;43.33
48848;BME280;36611;51.638;5.784;2023-08-17T06:38:27;101903.00;;;29.19;43.12
48848;BME280;36611;51.638;5.784;2023-08-17T06:40:53;101897.47;;;29.19;43.24
48848;BME280;36611;51.638;5.784;2023-08-17T06:43:20;101896.63;;;29.18;43.08
48848;BME280;36611;51.638;5.784;2023-08-17T06:45:46;101896.63;;;29.18;42.96
48848;BME280;36611;51.638;5.784;2023-08-17T06:48:13;101890.22;;;29.18;43.41
48848;BME280;36611;51.638;5.784;2023-08-17T06:50:39;101890.22;;;29.18;43.31
48848;BME280;36611;51.638;5.784;2023-08-17T06:53:06;101895.75;;;29.18;43.19
48848;BME280;36611;51.638;5.784;2023-08-17T06:55:33;101885.53;;;29.18;43.31
48848;BME280;36611;51.638;5.784;2023-08-17T06:58:00;101890.22;;;29.18;43.47
48848;BME280;36611;51.638;5.784;2023-08-17T07:00:26;101897.66;;;29.17;43.17
48848;BME280;36611;51.638;5.784;2023-08-17T07:02:53;101892.13;;;29.17;43.32
48848;BME280;36611;51.638;5.784;2023-08-17T07:05:24;101896.63;;;29.18;43.19
48848;BME280;36611;51.638;5.784;2023-08-17T07:07:50;101896.63;;;29.18;43.36
48848;BME280;36611;51.638;5.784;2023-08-17T07:10:17;101901.28;;;29.18;43.29
48848;BME280;36611;51.638;5.784;2023-08-17T07:12:43;101903.19;;;29.17;43.31
48848;BME280;36611;51.638;5.784;2023-08-17T07:15:12;101905.97;;;29.17;43.23
48848;BME280;36611;51.638;5.784;2023-08-17T07:17:39;101898.53;;;29.18;43.09
48848;BME280;36611;51.638;5.784;2023-08-17T07:20:06;101904.06;;;29.18;43.25
48848;BME280;36611;51.638;5.784;2023-08-17T07:22:46;101903.41;;;29.16;43.26
48848;BME280;36611;51.638;5.784;2023-08-17T07:25:12;101907.88;;;29.17;43.26
48848;BME280;36611;51.638;5.784;2023-08-17T07:27:39;101910.66;;;29.17;43.26
48848;BME280;36611;51.638;5.784;2023-08-17T07:30:06;101915.34;;;29.16;43.14
48848;BME280;36611;51.638;5.784;2023-08-17T07:32:33;101911.72;;;29.16;43.32
48848;BME280;36611;51.638;5.784;2023-08-17T07:35:00;101914.47;;;29.16;43.15
48848;BME280;36611;51.638;5.784;2023-08-17T07:37:26;101916.38;;;29.15;43.18
48848;BME280;36611;51.638;5.784;2023-08-17T07:39:59;101916.38;;;29.15;43.37
48848;BME280;36611;51.638;5.784;2023-08-17T07:42:25;101914.47;;;29.16;43.21
48848;BME280;36611;51.638;5.784;2023-08-17T07:44:53;101914.69;;;29.14;43.38
48848;BME280;36611;51.638;5.784;2023-08-17T07:47:19;101908.09;;;29.15;43.22
48848;BME280;36611;51.638;5.784;2023-08-17T07:49:46;101910.84;;;29.15;43.10
48848;BME280;36611;51.638;5.784;2023-08-17T07:52:15;101908.94;;;29.16;43.15
48848;BME280;36611;51.638;5.784;2023-08-17T07:54:42;101901.69;;;29.15;43.21
48848;BME280;36611;51.638;5.784;2023-08-17T07:57:08;101902.56;;;29.15;43.18
48848;BME280;36611;51.638;5.784;2023-08-17T07:59:35;101906.19;;;29.16;43.25
48848;BME280;36611;51.638;5.784;2023-08-17T08:02:02;101911.72;;;29.16;43.46
48848;BME280;36611;51.638;5.784;2023-08-17T08:04:28;101911.72;;;29.16;43.15
48848;BME280;36611;51.638;5.784;2023-08-17T08:06:55;101922.78;;;29.16;43.03
48848;BME280;36611;51.638;5.784;2023-08-17T08:09:21;101921.91;;;29.15;43.12
48848;BME280;36611;51.638;5.784;2023-08-17T08:11:48;101921.91;;;29.15;43.13
48848;BME280;36611;51.638;5.784;2023-08-17T08:14:14;101920.00;;;29.16;43.21
48848;BME280;36611;51.638;5.784;2023-08-17T08:16:41;101922.13;;;29.14;42.95
48848;BME280;36611;51.638;5.784;2023-08-17T08:19:07;101922.97;;;29.14;43.19
48848;BME280;36611;51.638;5.784;2023-08-17T08:21:34;101929.38;;;29.15;43.31
48848;BME280;36611;51.638;5.784;2023-08-17T08:24:00;101917.44;;;29.14;43.27
48848;BME280;36611;51.638;5.784;2023-08-17T08:26:27;101926.59;;;29.15;43.02
48848;BME280;36611;51.638;5.784;2023-08-17T08:28:53;101926.59;;;29.15;43.26
48848;BME280;36611;51.638;5.784;2023-08-17T08:31:20;101926.59;;;29.15;43.14
48848;BME280;36611;51.638;5.784;2023-08-17T08:33:47;101921.28;;;29.13;43.03
48848;BME280;36611;51.638;5.784;2023-08-17T08:36:13;101915.75;;;29.13;43.05
48848;BME280;36611;51.638;5.784;2023-08-17T08:38:40;101916.59;;;29.14;43.20
48848;BME280;36611;51.638;5.784;2023-08-17T08:41:08;101917.44;;;29.14;43.01
48848;BME280;36611;51.638;5.784;2023-08-17T08:43:35;101921.28;;;29.13;43.09
48848;BME280;36611;51.638;5.784;2023-08-17T08:46:02;101925.94;;;29.13;42.98
48848;BME280;36611;51.638;5.784;2023-08-17T08:48:28;101926.81;;;29.13;42.92
48848;BME280;36611;51.638;5.784;2023-08-17T08:50:55;101925.09;;;29.12;43.03
48848;BME280;36611;51.638;5.784;2023-08-17T08:53:37;101922.13;;;29.14;43.16
48848;BME280;36611;51.638;5.784;2023-08-17T08:56:04;101919.56;;;29.12;42.96
48848;BME280;36611;51.638;5.784;2023-08-17T08:58:34;101925.09;;;29.12;43.19
48848;BME280;36611;51.638;5.784;2023-08-17T09:01:02;101917.66;;;29.13;42.86
48848;BME280;36611;51.638;5.784;2023-08-17T09:03:34;101914.03;;;29.12;43.21
48848;BME280;36611;51.638;5.784;2023-08-17T09:06:00;101915.75;;;29.13;43.19
48848;BME280;36611;51.638;5.784;2023-08-17T09:08:29;101912.97;;;29.13;43.00
48848;BME280;36611;51.638;5.784;2023-08-17T09:10:56;101909.34;;;29.13;43.25
48848;BME280;36611;51.638;5.784;2023-08-17T09:13:23;101910.22;;;29.13;43.21
48848;BME280;36611;51.638;5.784;2023-08-17T09:15:50;101906.38;;;29.14;43.20
48848;BME280;36611;51.638;5.784;2023-08-17T09:18:16;101915.53;;;29.15;42.85
48848;BME280;36611;51.638;5.784;2023-08-17T09:20:46;101908.28;;;29.14;43.03
48848;BME280;36611;51.638;5.784;2023-08-17T09:23:16;101904.47;;;29.15;43.09
48848;BME280;36611;51.638;5.784;2023-08-17T09:25:45;101902.75;;;29.14;43.14
48848;BME280;36611;51.638;5.784;2023-08-17T09:28:13;101897.22;;;29.14;43.14
48848;BME280;36611;51.638;5.784;2023-08-17T09:30:51;101897.22;;;29.14;43.09
48848;BME280;36611;51.638;5.784;2023-08-17T09:33:22;101897.22;;;29.14;43.03
48848;BME280;36611;51.638;5.784;2023-08-17T09:35:50;101896.38;;;29.13;42.94
48848;BME280;36611;51.638;5.784;2023-08-17T09:38:18;101897.03;;;29.15;42.98
48848;BME280;36611;51.638;5.784;2023-08-17T09:40:45;101897.88;;;29.16;42.93
48848;BME280;36611;51.638;5.784;2023-08-17T09:43:14;101895.13;;;29.16;43.14
48848;BME280;36611;51.638;5.784;2023-08-17T09:45:41;101889.78;;;29.14;42.96
48848;BME280;36611;51.638;5.784;2023-08-17T09:48:10;101886.81;;;29.16;43.09
48848;BME280;36611;51.638;5.784;2023-08-17T09:50:37;101891.50;;;29.15;42.85
48848;BME280;36611;51.638;5.784;2023-08-17T09:53:04;101887.66;;;29.16;43.09
48848;BME280;36611;51.638;5.784;2023-08-17T09:55:31;101887.66;;;29.16;42.88
48848;BME280;36611;51.638;5.784;2023-08-17T09:58:00;101890.44;;;29.16;43.14
48848;BME280;36611;51.638;5.784;2023-08-17T10:00:27;101888.53;;;29.17;43.12
48848;BME280;36611;51.638;5.784;2023-08-17T10:02:55;101887.66;;;29.16;42.74
48848;BME280;36611;51.638;5.784;2023-08-17T10:05:25;101887.88;;;29.15;43.16
48848;BME280;36611;51.638;5.784;2023-08-17T10:07:57;101885.09;;;29.15;43.03
48848;BME280;36611;51.638;5.784;2023-08-17T10:10:26;101880.44;;;29.15;43.07
48848;BME280;36611;51.638;5.784;2023-08-17T10:13:09;101878.31;;;29.17;42.74
48848;BME280;36611;51.638;5.784;2023-08-17T10:16:02;101877.44;;;29.17;42.91
48848;BME280;36611;51.638;5.784;2023-08-17T10:18:45;101881.28;;;29.16;43.04
48848;BME280;36611;51.638;5.784;2023-08-17T10:21:24;101880.22;;;29.17;42.94
48848;BME280;36611;51.638;5.784;2023-08-17T10:23:55;101886.81;;;29.16;43.02
48848;BME280;36611;51.638;5.784;2023-08-17T10:26:22;101875.75;;;29.16;42.67
48848;BME280;36611;51.638;5.784;2023-08-17T10:28:50;101874.69;;;29.17;43.19
48848;BME280;36611;51.638;5.784;2023-08-17T10:31:17;101865.53;;;29.16;43.00
48848;BME280;36611;51.638;5.784;2023-08-17T10:33:44;101871.91;;;29.17;43.06
48848;BME280;36611;51.638;5.784;2023-08-17T10:36:14;101868.09;;;29.18;43.08
48848;BME280;36611;51.638;5.784;2023-08-17T10:38:41;101870.00;;;29.17;42.83
48848;BME280;36611;51.638;5.784;2023-08-17T10:41:10;101862.56;;;29.18;43.07
48848;BME280;36611;51.638;5.784;2023-08-17T10:43:56;101856.16;;;29.17;42.75
48848;BME280;36611;51.638;5.784;2023-08-17T10:46:34;101858.09;;;29.17;42.83
48848;BME280;36611;51.638;5.784;2023-08-17T10:49:03;101861.91;;;29.16;42.92
48848;BME280;36611;51.638;5.784;2023-08-17T10:51:32;101866.38;;;29.17;42.83
48848;BME280;36611;51.638;5.784;2023-08-17T10:54:02;101861.72;;;29.17;42.95
48848;BME280;36611;51.638;5.784;2023-08-17T10:56:29;101861.72;;;29.17;42.89
48848;BME280;36611;51.638;5.784;2023-08-17T10:59:00;101857.03;;;29.18;42.72
48848;BME280;36611;51.638;5.784;2023-08-17T11:01:51;101861.72;;;29.17;42.98
48848;BME280;36611;51.638;5.784;2023-08-17T11:04:18;101862.56;;;29.18;42.62
48848;BME280;36611;51.638;5.784;2023-08-17T11:06:44;101866.38;;;29.17;43.00
48848;BME280;36611;51.638;5.784;2023-08-17T11:09:11;101860.66;;;29.18;42.82
48848;BME280;36611;51.638;5.784;2023-08-17T11:11:38;101868.94;;;29.18;42.95
48848;BME280;36611;51.638;5.784;2023-08-17T11:14:05;101861.50;;;29.19;42.82
48848;BME280;36611;51.638;5.784;2023-08-17T11:16:32;101863.41;;;29.18;42.78
48848;BME280;36611;51.638;5.784;2023-08-17T11:19:00;101874.47;;;29.18;42.77
48848;BME280;36611;51.638;5.784;2023-08-17T11:21:26;101868.09;;;29.18;42.92
48848;BME280;36611;51.638;5.784;2023-08-17T11:23:55;101872.56;;;29.19;42.79
48848;BME280;36611;51.638;5.784;2023-08-17T11:26:22;101876.41;;;29.18;42.63
48848;BME280;36611;51.638;5.784;2023-08-17T11:28:49;101869.81;;;29.19;42.97
48848;BME280;36611;51.638;5.784;2023-08-17T11:31:16;101877.25;;;29.18;42.76
48848;BME280;36611;51.638;5.784;2023-08-17T11:33:43;101873.41;;;29.19;42.58
48848;BME280;36611;51.638;5.784;2023-08-17T11:36:09;101876.41;;;29.18;42.79
48848;BME280;36611;51.638;5.784;2023-08-17T11:38:38;101885.53;;;29.18;42.79
48848;BME280;36611;51.638;5.784;2023-08-17T11:41:05;101882.78;;;29.18;42.86
48848;BME280;36611;51.638;5.784;2023-08-17T11:43:35;101874.69;;;29.17;42.69
48848;BME280;36611;51.638;5.784;2023-08-17T11:46:02;101878.31;;;29.17;42.83
48848;BME280;36611;51.638;5.784;2023-08-17T11:48:29;101873.63;;;29.18;42.74
48848;BME280;36611;51.638;5.784;2023-08-17T11:51:02;101878.31;;;29.17;42.86
48848;BME280;36611;51.638;5.784;2023-08-17T11:53:37;101872.78;;;29.17;42.80
48848;BME280;36611;51.638;5.784;2023-08-17T11:56:06;101869.16;;;29.17;42.77
48848;BME280;36611;51.638;5.784;2023-08-17T11:58:43;101866.19;;;29.18;42.97
48848;BME280;36611;51.638;5.784;2023-08-17T12:01:11;101864.47;;;29.17;42.63
48848;BME280;36611;51.638;5.784;2023-08-17T12:03:39;101867.25;;;29.17;42.52
48848;BME280;36611;51.638;5.784;2023-08-17T12:06:08;101866.19;;;29.18;42.77
48848;BME280;36611;51.638;5.784;2023-08-17T12:08:35;101866.38;;;29.17;42.68
48848;BME280;36611;51.638;5.784;2023-08-17T12:11:03;101862.56;;;29.18;42.77
48848;BME280;36611;51.638;5.784;2023-08-17T12:13:34;101867.25;;;29.17;42.60
48848;BME280;36611;51.638;5.784;2023-08-17T12:16:01;101868.09;;;29.18;42.75
48848;BME280;36611;51.638;5.784;2023-08-17T12:18:28;101862.56;;;29.18;42.84
48848;BME280;36611;51.638;5.784;2023-08-17T12:20:55;101870.84;;;29.18;42.80
48848;BME280;36611;51.638;5.784;2023-08-17T12:23:22;101866.38;;;29.17;42.62
48848;BME280;36611;51.638;5.784;2023-08-17T12:25:53;101872.78;;;29.17;42.86
48848;BME280;36611;51.638;5.784;2023-08-17T12:28:21;101866.38;;;29.17;42.79
48848;BME280;36611;51.638;5.784;2023-08-17T12:30:57;101863.63;;;29.17;42.51
48848;BME280;36611;51.638;5.784;2023-08-17T12:33:24;101861.72;;;29.17;42.85
48848;BME280;36611;51.638;5.784;2023-08-17T12:35:50;101860.84;;;29.17;42.67
48848;BME280;36611;51.638;5.784;2023-08-17T12:38:17;101865.31;;;29.18;42.62
48848;BME280;36611;51.638;5.784;2023-08-17T12:40:43;101866.38;;;29.17;42.79
48848;BME280;36611;51.638;5.784;2023-08-17T12:43:10;101866.38;;;29.17;42.67
48848;BME280;36611;51.638;5.784;2023-08-17T12:45:41;101871.91;;;29.17;42.89
48848;BME280;36611;51.638;5.784;2023-08-17T12:48:07;101865.53;;;29.16;42.56
48848;BME280;36611;51.638;5.784;2023-08-17T12:50:34;101868.31;;;29.16;42.71
48848;BME280;36611;51.638;5.784;2023-08-17T12:53:01;101861.06;;;29.15;42.84
48848;BME280;36611;51.638;5.784;2023-08-17T12:55:27;101865.53;;;29.16;42.78